sensor_id;sensor_type;location;lat;lon;timestamp;pressure;altitude;pressure_sealevel;temperature;humidity
67545;BME280;54380;47.770;11.150;2024-01-16T00:02:50;94158.56;;;-1.16;62.17
67545;BME280;54380;47.770;11.150;2024-01-16T00:05:17;94160.34;;;-1.23;61.18
67545;BME280;54380;47.770;11.150;2024-01-16T00:07:58;94163.09;;;-1.31;61.80
67545;BME280;54380;47.770;11.150;2024-01-16T00:10:40;94169.66;;;-1.35;62.12
67545;BME280;54380;47.770;11.150;2024-01-16T00:13:07;94165.88;;;-1.39;61.36
67545;BME280;54380;47.770;11.150;2024-01-16T00:15:34;94169.03;;;-1.44;61.06
67545;BME280;54380;47.770;11.150;2024-01-16T00:18:14;94168.19;;;-1.51;62.32
67545;BME280;54380;47.770;11.150;2024-01-16T00:20:55;94170.78;;;-1.58;62.96
67545;BME280;54380;47.770;11.150;2024-01-16T00:23:22;94164.78;;;-1.58;63.09
67545;BME280;54380;47.770;11.150;2024-01-16T00:26:02;94168.38;;;-1.59;63.60
67545;BME280;54380;47.770;11.150;2024-01-16T00:28:30;94169.16;;;-1.59;63.93
67545;BME280;54380;47.770;11.150;2024-01-16T00:31:01;94174.34;;;-1.59;63.29
67545;BME280;54380;47.770;11.150;2024-01-16T00:36:22;94181.28;;;-1.66;63.02
67545;BME280;54380;47.770;11.150;2024-01-16T00:38:49;94186.25;;;-1.71;62.85
67545;BME280;54380;47.770;11.150;2024-01-16T00:41:16;94190.97;;;-1.74;63.15
67545;BME280;54380;47.770;11.150;2024-01-16T00:43:57;94198.34;;;-1.78;63.41
67545;BME280;54380;47.770;11.150;2024-01-16T00:46:24;94198.50;;;-1.80;63.18
67545;BME280;54380;47.770;11.150;2024-01-16T00:48:51;94204.47;;;-1.79;63.58
67545;BME280;54380;47.770;11.150;2024-01-16T00:51:24;94211.66;;;-1.81;62.87
67545;BME280;54380;47.770;11.150;2024-01-16T00:53:52;94211.59;;;-1.88;63.28
67545;BME280;54380;47.770;11.150;2024-01-16T00:56:20;94207.81;;;-1.92;63.79
67545;BME280;54380;47.770;11.150;2024-01-16T00:58:47;94215.75;;;-1.93;63.86
67545;BME280;54380;47.770;11.150;2024-01-16T01:01:13;94221.72;;;-1.93;63.86
67545;BME280;54380;47.770;11.150;2024-01-16T01:03:41;94215.56;;;-1.92;64.18
67545;BME280;54380;47.770;11.150;2024-01-16T01:06:09;94223.91;;;-1.90;64.77
67545;BME280;54380;47.770;11.150;2024-01-16T01:08:46;94227.88;;;-1.94;64.49
67545;BME280;54380;47.770;11.150;2024-01-16T01:11:12;94227.81;;;-2.01;64.49
67545;BME280;54380;47.770;11.150;2024-01-16T01:13:39;94230.00;;;-2.04;64.90
67545;BME280;54380;47.770;11.150;2024-01-16T01:16:08;94230.78;;;-2.04;65.45
67545;BME280;54380;47.770;11.150;2024-01-16T01:18:35;94229.00;;;-2.03;65.32
67545;BME280;54380;47.770;11.150;2024-01-16T01:21:15;94231.41;;;-2.02;65.55
67545;BME280;54380;47.770;11.150;2024-01-16T01:23:44;94232.22;;;-2.01;65.46
67545;BME280;54380;47.770;11.150;2024-01-16T01:26:11;94233.19;;;-2.02;65.62
67545;BME280;54380;47.770;11.150;2024-01-16T01:28:41;94239.97;;;-2.01;65.55
67545;BME280;54380;47.770;11.150;2024-01-16T01:31:08;94233.19;;;-2.02;65.57
67545;BME280;54380;47.770;11.150;2024-01-16T01:33:36;94245.34;;;-2.03;65.54
67545;BME280;54380;47.770;11.150;2024-01-16T01:36:03;94248.09;;;-2.04;65.37
67545;BME280;54380;47.770;11.150;2024-01-16T01:38:31;94247.09;;;-2.03;65.33
67545;BME280;54380;47.770;11.150;2024-01-16T01:41:01;94246.13;;;-2.02;65.19
67545;BME280;54380;47.770;11.150;2024-01-16T01:43:41;94253.50;;;-1.99;64.66
67545;BME280;54380;47.770;11.150;2024-01-16T01:46:08;94258.47;;;-1.98;64.57
67545;BME280;54380;47.770;11.150;2024-01-16T01:48:37;94256.72;;;-1.97;63.87
67545;BME280;54380;47.770;11.150;2024-01-16T01:51:04;94263.31;;;-1.94;63.61
67545;BME280;54380;47.770;11.150;2024-01-16T01:53:31;94260.09;;;-1.96;62.31
67545;BME280;54380;47.770;11.150;2024-01-16T01:56:02;94262.81;;;-2.05;61.68
67545;BME280;54380;47.770;11.150;2024-01-16T01:58:30;94263.50;;;-2.17;60.30
67545;BME280;54380;47.770;11.150;2024-01-16T02:00:57;94260.03;;;-2.31;61.63
67545;BME280;54380;47.770;11.150;2024-01-16T02:03:25;94267.28;;;-2.41;62.22
67545;BME280;54380;47.770;11.150;2024-01-16T02:05:53;94270.00;;;-2.50;62.95
67545;BME280;54380;47.770;11.150;2024-01-16T02:08:21;94271.88;;;-2.58;60.99
67545;BME280;54380;47.770;11.150;2024-01-16T02:10:49;94272.75;;;-2.73;60.04
67545;BME280;54380;47.770;11.150;2024-01-16T02:13:18;94273.56;;;-2.87;60.20
67545;BME280;54380;47.770;11.150;2024-01-16T02:15:49;94274.84;;;-2.98;59.98
67545;BME280;54380;47.770;11.150;2024-01-16T02:18:16;94272.38;;;-3.06;60.76
67545;BME280;54380;47.770;11.150;2024-01-16T02:20:44;94263.69;;;-3.20;59.48
67545;BME280;54380;47.770;11.150;2024-01-16T02:23:12;94268.84;;;-3.35;59.37
67545;BME280;54380;47.770;11.150;2024-01-16T02:25:41;94268.69;;;-3.48;59.51
67545;BME280;54380;47.770;11.150;2024-01-16T02:28:08;94272.16;;;-3.56;60.07
67545;BME280;54380;47.770;11.150;2024-01-16T02:30:35;94278.81;;;-3.61;60.89
67545;BME280;54380;47.770;11.150;2024-01-16T02:33:03;94270.13;;;-3.75;59.32
67545;BME280;54380;47.770;11.150;2024-01-16T02:35:30;94277.66;;;-3.88;58.67
67545;BME280;54380;47.770;11.150;2024-01-16T02:37:57;94282.44;;;-4.00;59.42
67545;BME280;54380;47.770;11.150;2024-01-16T02:40:24;94284.75;;;-4.05;60.83
67545;BME280;54380;47.770;11.150;2024-01-16T02:42:54;94289.44;;;-4.09;60.60
67545;BME280;54380;47.770;11.150;2024-01-16T02:45:21;94287.22;;;-4.12;60.22
67545;BME280;54380;47.770;11.150;2024-01-16T02:47:49;94284.81;;;-4.13;60.50
67545;BME280;54380;47.770;11.150;2024-01-16T02:50:16;94290.16;;;-4.15;61.38
67545;BME280;54380;47.770;11.150;2024-01-16T02:52:43;94284.19;;;-4.15;62.44
67545;BME280;54380;47.770;11.150;2024-01-16T02:55:12;94286.31;;;-4.19;61.16
67545;BME280;54380;47.770;11.150;2024-01-16T02:57:38;94284.06;;;-4.22;61.29
67545;BME280;54380;47.770;11.150;2024-01-16T03:00:11;94284.16;;;-4.30;62.39
67545;BME280;54380;47.770;11.150;2024-01-16T03:02:40;94286.44;;;-4.35;60.62
67545;BME280;54380;47.770;11.150;2024-01-16T03:05:07;94283.13;;;-4.44;60.42
67545;BME280;54380;47.770;11.150;2024-01-16T03:07:34;94280.97;;;-4.55;59.62
67545;BME280;54380;47.770;11.150;2024-01-16T03:10:01;94289.13;;;-4.75;58.81
67545;BME280;54380;47.770;11.150;2024-01-16T03:12:28;94285.66;;;-4.90;58.44
67545;BME280;54380;47.770;11.150;2024-01-16T03:14:55;94282.41;;;-5.07;58.41
67545;BME280;54380;47.770;11.150;2024-01-16T03:17:24;94282.81;;;-5.26;58.48
67545;BME280;54380;47.770;11.150;2024-01-16T03:19:51;94291.06;;;-5.39;58.46
67545;BME280;54380;47.770;11.150;2024-01-16T03:22:18;94296.41;;;-5.49;58.81
67545;BME280;54380;47.770;11.150;2024-01-16T03:24:45;94307.19;;;-5.54;59.44
67545;BME280;54380;47.770;11.150;2024-01-16T03:27:12;94300.75;;;-5.49;60.44
67545;BME280;54380;47.770;11.150;2024-01-16T03:29:39;94302.97;;;-5.46;60.28
67545;BME280;54380;47.770;11.150;2024-01-16T03:32:06;94311.97;;;-5.51;60.40
67545;BME280;54380;47.770;11.150;2024-01-16T03:34:36;94311.38;;;-5.53;60.34
67545;BME280;54380;47.770;11.150;2024-01-16T03:37:02;94306.53;;;-5.47;60.69
67545;BME280;54380;47.770;11.150;2024-01-16T03:39:30;94303.31;;;-5.49;60.48
67545;BME280;54380;47.770;11.150;2024-01-16T03:41:56;94297.84;;;-5.46;60.79
67545;BME280;54380;47.770;11.150;2024-01-16T03:44:23;94293.78;;;-5.41;61.99
67545;BME280;54380;47.770;11.150;2024-01-16T03:46:50;94294.75;;;-5.34;61.97
67545;BME280;54380;47.770;11.150;2024-01-16T03:49:17;94285.56;;;-5.28;63.30
67545;BME280;54380;47.770;11.150;2024-01-16T03:51:46;94284.06;;;-5.22;63.51
67545;BME280;54380;47.770;11.150;2024-01-16T03:54:14;94282.44;;;-5.15;63.83
67545;BME280;54380;47.770;11.150;2024-01-16T03:56:41;94283.25;;;-5.15;63.60
67545;BME280;54380;47.770;11.150;2024-01-16T03:59:07;94272.31;;;-5.17;63.70
67545;BME280;54380;47.770;11.150;2024-01-16T04:01:34;94270.38;;;-5.15;64.49
67545;BME280;54380;47.770;11.150;2024-01-16T04:04:04;94266.16;;;-5.08;64.46
67545;BME280;54380;47.770;11.150;2024-01-16T04:06:34;94266.16;;;-5.08;62.75
67545;BME280;54380;47.770;11.150;2024-01-16T04:09:02;94268.88;;;-5.09;62.73
67545;BME280;54380;47.770;11.150;2024-01-16T04:11:29;94264.72;;;-5.10;63.69
67545;BME280;54380;47.770;11.150;2024-01-16T04:13:56;94261.00;;;-5.08;63.67
67545;BME280;54380;47.770;11.150;2024-01-16T04:16:23;94246.19;;;-5.05;64.52
67545;BME280;54380;47.770;11.150;2024-01-16T04:18:50;94249.59;;;-5.05;64.15
67545;BME280;54380;47.770;11.150;2024-01-16T04:21:17;94257.81;;;-5.10;62.65
67545;BME280;54380;47.770;11.150;2024-01-16T04:23:46;94252.56;;;-5.24;62.09
67545;BME280;54380;47.770;11.150;2024-01-16T04:26:15;94247.00;;;-5.36;62.18
67545;BME280;54380;47.770;11.150;2024-01-16T04:28:43;94259.22;;;-5.38;64.20
67545;BME280;54380;47.770;11.150;2024-01-16T04:31:09;94256.50;;;-5.37;63.36
67545;BME280;54380;47.770;11.150;2024-01-16T04:33:38;94256.16;;;-5.34;64.97
67545;BME280;54380;47.770;11.150;2024-01-16T04:36:06;94248.91;;;-5.30;65.10
67545;BME280;54380;47.770;11.150;2024-01-16T04:38:33;94255.13;;;-5.24;64.28
67545;BME280;54380;47.770;11.150;2024-01-16T04:41:01;94253.09;;;-5.29;63.50
67545;BME280;54380;47.770;11.150;2024-01-16T04:43:30;94255.03;;;-5.31;64.48
67545;BME280;54380;47.770;11.150;2024-01-16T04:45:58;94253.09;;;-5.37;62.65
67545;BME280;54380;47.770;11.150;2024-01-16T04:48:29;94253.97;;;-5.53;62.09
67545;BME280;54380;47.770;11.150;2024-01-16T04:50:56;94255.44;;;-5.59;63.01
67545;BME280;54380;47.770;11.150;2024-01-16T04:53:23;94253.66;;;-5.58;63.66
67545;BME280;54380;47.770;11.150;2024-01-16T04:55:50;94262.03;;;-5.56;63.37
67545;BME280;54380;47.770;11.150;2024-01-16T04:58:17;94262.22;;;-5.58;63.51
67545;BME280;54380;47.770;11.150;2024-01-16T05:00:46;94261.72;;;-5.61;62.62
67545;BME280;54380;47.770;11.150;2024-01-16T05:03:14;94258.34;;;-5.62;64.33
67545;BME280;54380;47.770;11.150;2024-01-16T05:05:41;94269.44;;;-5.61;64.19
67545;BME280;54380;47.770;11.150;2024-01-16T05:08:08;94259.31;;;-5.63;63.38
67545;BME280;54380;47.770;11.150;2024-01-16T05:10:35;94261.94;;;-5.71;61.51
67545;BME280;54380;47.770;11.150;2024-01-16T05:13:02;94257.59;;;-5.79;62.01
67545;BME280;54380;47.770;11.150;2024-01-16T05:15:28;94258.25;;;-5.85;61.63
67545;BME280;54380;47.770;11.150;2024-01-16T05:17:57;94256.25;;;-5.98;60.82
67545;BME280;54380;47.770;11.150;2024-01-16T05:20:24;94258.03;;;-6.14;60.48
67545;BME280;54380;47.770;11.150;2024-01-16T05:22:50;94264.47;;;-6.19;61.67
67545;BME280;54380;47.770;11.150;2024-01-16T05:25:17;94263.16;;;-6.14;62.48
67545;BME280;54380;47.770;11.150;2024-01-16T05:27:44;94259.47;;;-6.12;62.58
67545;BME280;54380;47.770;11.150;2024-01-16T05:30:11;94261.72;;;-6.09;64.12
67545;BME280;54380;47.770;11.150;2024-01-16T05:32:38;94262.03;;;-6.04;64.52
67545;BME280;54380;47.770;11.150;2024-01-16T05:35:09;94257.19;;;-5.99;64.83
67545;BME280;54380;47.770;11.150;2024-01-16T05:37:36;94258.63;;;-5.96;65.07
67545;BME280;54380;47.770;11.150;2024-01-16T05:40:04;94259.28;;;-5.94;66.32
67545;BME280;54380;47.770;11.150;2024-01-16T05:42:30;94258.91;;;-5.91;65.77
67545;BME280;54380;47.770;11.150;2024-01-16T05:44:57;94258.91;;;-5.91;64.49
67545;BME280;54380;47.770;11.150;2024-01-16T05:47:24;94248.50;;;-5.89;65.98
67545;BME280;54380;47.770;11.150;2024-01-16T05:49:54;94249.09;;;-5.87;65.64
67545;BME280;54380;47.770;11.150;2024-01-16T05:52:24;94245.59;;;-5.86;65.56
67545;BME280;54380;47.770;11.150;2024-01-16T05:54:50;94248.63;;;-5.91;63.82
67545;BME280;54380;47.770;11.150;2024-01-16T05:57:17;94245.16;;;-5.98;63.14
67545;BME280;54380;47.770;11.150;2024-01-16T05:59:45;94250.50;;;-6.08;62.15
67545;BME280;54380;47.770;11.150;2024-01-16T06:02:11;94244.53;;;-6.16;61.79
67545;BME280;54380;47.770;11.150;2024-01-16T06:04:38;94248.09;;;-6.26;61.06
67545;BME280;54380;47.770;11.150;2024-01-16T06:07:05;94248.25;;;-6.35;61.24
67545;BME280;54380;47.770;11.150;2024-01-16T06:09:39;94256.13;;;-6.45;61.96
67545;BME280;54380;47.770;11.150;2024-01-16T06:12:08;94252.63;;;-6.52;61.47
67545;BME280;54380;47.770;11.150;2024-01-16T06:14:35;94250.53;;;-6.57;61.06
67545;BME280;54380;47.770;11.150;2024-01-16T06:17:02;94254.53;;;-6.63;60.44
67545;BME280;54380;47.770;11.150;2024-01-16T06:19:29;94245.22;;;-6.72;61.42
67545;BME280;54380;47.770;11.150;2024-01-16T06:21:56;94255.81;;;-6.75;62.73
67545;BME280;54380;47.770;11.150;2024-01-16T06:24:23;94252.13;;;-6.80;61.88
67545;BME280;54380;47.770;11.150;2024-01-16T06:26:52;94255.66;;;-6.81;62.09
67545;BME280;54380;47.770;11.150;2024-01-16T06:29:19;94248.75;;;-6.81;61.67
67545;BME280;54380;47.770;11.150;2024-01-16T06:31:57;94241.72;;;-6.79;62.82
67545;BME280;54380;47.770;11.150;2024-01-16T06:34:23;94243.47;;;-6.71;63.93
67545;BME280;54380;47.770;11.150;2024-01-16T06:36:50;94238.16;;;-6.62;64.83
67545;BME280;54380;47.770;11.150;2024-01-16T06:39:17;94228.72;;;-6.53;64.30
67545;BME280;54380;47.770;11.150;2024-01-16T06:41:44;94227.09;;;-6.46;64.58
67545;BME280;54380;47.770;11.150;2024-01-16T06:44:13;94221.00;;;-6.36;64.54
67545;BME280;54380;47.770;11.150;2024-01-16T06:46:39;94224.50;;;-6.29;63.92
67545;BME280;54380;47.770;11.150;2024-01-16T06:49:06;94227.38;;;-6.24;64.21
67545;BME280;54380;47.770;11.150;2024-01-16T06:51:33;94225.59;;;-6.15;64.67
67545;BME280;54380;47.770;11.150;2024-01-16T06:54:00;94230.53;;;-6.06;65.59
67545;BME280;54380;47.770;11.150;2024-01-16T06:56:27;94234.53;;;-5.95;66.32
67545;BME280;54380;47.770;11.150;2024-01-16T06:58:54;94230.16;;;-5.86;65.93
67545;BME280;54380;47.770;11.150;2024-01-16T07:01:24;94238.00;;;-5.80;65.58
67545;BME280;54380;47.770;11.150;2024-01-16T07:03:50;94232.38;;;-5.75;64.86
67545;BME280;54380;47.770;11.150;2024-01-16T07:06:19;94228.50;;;-5.71;64.99
67545;BME280;54380;47.770;11.150;2024-01-16T07:08:46;94232.34;;;-5.67;64.57
67545;BME280;54380;47.770;11.150;2024-01-16T07:11:14;94242.78;;;-5.60;64.13
67545;BME280;54380;47.770;11.150;2024-01-16T07:13:41;94236.78;;;-5.53;64.23
67545;BME280;54380;47.770;11.150;2024-01-16T07:16:09;94240.28;;;-5.45;65.48
67545;BME280;54380;47.770;11.150;2024-01-16T07:18:37;94232.38;;;-5.36;66.41
67545;BME280;54380;47.770;11.150;2024-01-16T07:21:04;94229.25;;;-5.23;66.18
67545;BME280;54380;47.770;11.150;2024-01-16T07:23:41;94230.00;;;-5.14;66.25
67545;BME280;54380;47.770;11.150;2024-01-16T07:26:08;94230.59;;;-5.04;66.19
67545;BME280;54380;47.770;11.150;2024-01-16T07:28:35;94232.75;;;-4.93;66.80
67545;BME280;54380;47.770;11.150;2024-01-16T07:31:02;94228.97;;;-4.82;65.97
67545;BME280;54380;47.770;11.150;2024-01-16T07:33:28;94224.94;;;-4.76;65.39
67545;BME280;54380;47.770;11.150;2024-01-16T07:35:57;94230.69;;;-4.74;64.34
67545;BME280;54380;47.770;11.150;2024-01-16T07:38:24;94236.69;;;-4.74;64.90
67545;BME280;54380;47.770;11.150;2024-01-16T07:40:51;94233.75;;;-4.71;64.02
67545;BME280;54380;47.770;11.150;2024-01-16T07:43:17;94238.19;;;-4.65;64.60
67545;BME280;54380;47.770;11.150;2024-01-16T07:45:44;94229.78;;;-4.58;64.35
67545;BME280;54380;47.770;11.150;2024-01-16T07:48:11;94240.19;;;-4.52;64.83
67545;BME280;54380;47.770;11.150;2024-01-16T07:50:38;94234.81;;;-4.42;64.62
67545;BME280;54380;47.770;11.150;2024-01-16T07:53:07;94231.97;;;-4.32;64.81
67545;BME280;54380;47.770;11.150;2024-01-16T07:55:33;94233.97;;;-4.20;64.02
67545;BME280;54380;47.770;11.150;2024-01-16T07:58:00;94233.00;;;-4.04;65.05
67545;BME280;54380;47.770;11.150;2024-01-16T08:00:30;94235.09;;;-3.84;64.98
67545;BME280;54380;47.770;11.150;2024-01-16T08:02:57;94229.56;;;-3.66;64.77
67545;BME280;54380;47.770;11.150;2024-01-16T08:05:24;94229.38;;;-3.50;64.80
67545;BME280;54380;47.770;11.150;2024-01-16T08:07:54;94228.19;;;-3.33;64.76
67545;BME280;54380;47.770;11.150;2024-01-16T08:10:22;94226.56;;;-3.19;64.69
67545;BME280;54380;47.770;11.150;2024-01-16T08:12:49;94228.84;;;-3.09;64.51
67545;BME280;54380;47.770;11.150;2024-01-16T08:15:16;94230.53;;;-3.01;64.14
67545;BME280;54380;47.770;11.150;2024-01-16T08:17:44;94227.03;;;-2.94;63.79
67545;BME280;54380;47.770;11.150;2024-01-16T08:20:11;94222.91;;;-2.88;63.73
67545;BME280;54380;47.770;11.150;2024-01-16T08:22:39;94218.78;;;-2.82;63.63
67545;BME280;54380;47.770;11.150;2024-01-16T08:25:06;94217.09;;;-2.75;63.51
67545;BME280;54380;47.770;11.150;2024-01-16T08:27:34;94224.09;;;-2.69;62.90
67545;BME280;54380;47.770;11.150;2024-01-16T08:30:04;94221.75;;;-2.64;62.76
67545;BME280;54380;47.770;11.150;2024-01-16T08:32:32;94219.03;;;-2.56;63.09
67545;BME280;54380;47.770;11.150;2024-01-16T08:34:58;94220.78;;;-2.41;62.97
67545;BME280;54380;47.770;11.150;2024-01-16T08:37:27;94216.91;;;-2.24;62.82
67545;BME280;54380;47.770;11.150;2024-01-16T08:39:57;94216.84;;;-2.09;62.69
67545;BME280;54380;47.770;11.150;2024-01-16T08:42:24;94209.97;;;-1.95;62.72
67545;BME280;54380;47.770;11.150;2024-01-16T08:44:52;94219.81;;;-1.84;62.85
67545;BME280;54380;47.770;11.150;2024-01-16T08:47:19;94207.91;;;-1.72;62.42
67545;BME280;54380;47.770;11.150;2024-01-16T08:49:46;94205.00;;;-1.56;62.56
67545;BME280;54380;47.770;11.150;2024-01-16T08:52:12;94202.13;;;-1.39;62.11
67545;BME280;54380;47.770;11.150;2024-01-16T08:54:39;94192.81;;;-1.20;62.14
67545;BME280;54380;47.770;11.150;2024-01-16T08:57:06;94201.25;;;-1.05;62.08
67545;BME280;54380;47.770;11.150;2024-01-16T08:59:33;94200.09;;;-0.89;61.35
67545;BME280;54380;47.770;11.150;2024-01-16T09:02:01;94201.50;;;-0.73;61.48
67545;BME280;54380;47.770;11.150;2024-01-16T09:04:30;94209.09;;;-0.58;61.20
67545;BME280;54380;47.770;11.150;2024-01-16T09:06:57;94201.75;;;-0.41;61.35
67545;BME280;54380;47.770;11.150;2024-01-16T09:09:24;94195.78;;;-0.29;60.32
67545;BME280;54380;47.770;11.150;2024-01-16T09:11:51;94196.34;;;-0.20;59.94
67545;BME280;54380;47.770;11.150;2024-01-16T09:14:18;94199.53;;;-0.11;59.69
67545;BME280;54380;47.770;11.150;2024-01-16T09:16:46;94192.56;;;-0.04;59.34
67545;BME280;54380;47.770;11.150;2024-01-16T09:19:15;94188.16;;;-0.04;59.71
67545;BME280;54380;47.770;11.150;2024-01-16T09:21:42;94194.13;;;-0.03;59.41
67545;BME280;54380;47.770;11.150;2024-01-16T09:24:09;94192.94;;;-0.01;59.65
67545;BME280;54380;47.770;11.150;2024-01-16T09:26:36;94185.56;;;0.03;59.14
67545;BME280;54380;47.770;11.150;2024-01-16T09:29:02;94183.53;;;0.05;59.16
67545;BME280;54380;47.770;11.150;2024-01-16T09:31:29;94175.97;;;0.10;59.21
67545;BME280;54380;47.770;11.150;2024-01-16T09:33:56;94172.75;;;0.21;59.10
67545;BME280;54380;47.770;11.150;2024-01-16T09:36:24;94174.31;;;0.36;59.05
67545;BME280;54380;47.770;11.150;2024-01-16T09:38:51;94173.06;;;0.52;58.44
67545;BME280;54380;47.770;11.150;2024-01-16T09:41:18;94173.38;;;0.75;58.66
67545;BME280;54380;47.770;11.150;2024-01-16T09:43:44;94166.84;;;1.04;58.20
67545;BME280;54380;47.770;11.150;2024-01-16T09:46:12;94161.63;;;1.36;58.30
67545;BME280;54380;47.770;11.150;2024-01-16T09:48:42;94159.22;;;1.66;57.41
67545;BME280;54380;47.770;11.150;2024-01-16T09:51:11;94152.38;;;1.72;55.33
67545;BME280;54380;47.770;11.150;2024-01-16T09:53:42;94149.09;;;1.58;54.60
67545;BME280;54380;47.770;11.150;2024-01-16T09:56:12;94152.41;;;1.40;54.72
67545;BME280;54380;47.770;11.150;2024-01-16T09:58:40;94142.16;;;1.20;54.87
67545;BME280;54380;47.770;11.150;2024-01-16T10:01:07;94147.66;;;1.05;54.92
67545;BME280;54380;47.770;11.150;2024-01-16T10:03:34;94146.50;;;0.95;55.56
67545;BME280;54380;47.770;11.150;2024-01-16T10:06:02;94149.72;;;0.90;55.23
67545;BME280;54380;47.770;11.150;2024-01-16T10:08:30;94140.78;;;0.79;55.06
67545;BME280;54380;47.770;11.150;2024-01-16T10:10:59;94139.66;;;0.69;55.18
67545;BME280;54380;47.770;11.150;2024-01-16T10:13:26;94133.09;;;0.59;55.33
67545;BME280;54380;47.770;11.150;2024-01-16T10:15:53;94130.13;;;0.49;55.29
67545;BME280;54380;47.770;11.150;2024-01-16T10:18:22;94133.75;;;0.41;55.72
67545;BME280;54380;47.770;11.150;2024-01-16T10:20:51;94128.19;;;0.38;55.67
67545;BME280;54380;47.770;11.150;2024-01-16T10:23:22;94127.38;;;0.37;56.46
67545;BME280;54380;47.770;11.150;2024-01-16T10:28:44;94125.53;;;0.51;56.95
67545;BME280;54380;47.770;11.150;2024-01-16T10:31:12;94119.09;;;0.60;56.90
67545;BME280;54380;47.770;11.150;2024-01-16T10:33:41;94124.25;;;0.67;56.41
67545;BME280;54380;47.770;11.150;2024-01-16T10:36:08;94126.41;;;0.77;56.51
67545;BME280;54380;47.770;11.150;2024-01-16T10:38:37;94120.97;;;0.85;56.70
67545;BME280;54380;47.770;11.150;2024-01-16T10:41:06;94115.09;;;0.96;56.60
67545;BME280;54380;47.770;11.150;2024-01-16T10:43:33;94111.47;;;1.04;56.48
67545;BME280;54380;47.770;11.150;2024-01-16T10:46:08;94116.59;;;1.10;56.44
67545;BME280;54380;47.770;11.150;2024-01-16T10:48:35;94107.59;;;1.13;56.44
67545;BME280;54380;47.770;11.150;2024-01-16T10:51:02;94100.97;;;1.17;56.30
67545;BME280;54380;47.770;11.150;2024-01-16T10:53:32;94096.97;;;1.21;55.88
67545;BME280;54380;47.770;11.150;2024-01-16T10:56:01;94093.53;;;1.21;55.54
67545;BME280;54380;47.770;11.150;2024-01-16T10:58:29;94091.16;;;1.19;55.28
67545;BME280;54380;47.770;11.150;2024-01-16T11:01:01;94087.97;;;1.17;54.99
67545;BME280;54380;47.770;11.150;2024-01-16T11:03:32;94087.38;;;1.15;54.77
67545;BME280;54380;47.770;11.150;2024-01-16T11:06:01;94093.22;;;1.10;54.67
67545;BME280;54380;47.770;11.150;2024-01-16T11:08:28;94093.22;;;1.10;55.08
67545;BME280;54380;47.770;11.150;2024-01-16T11:10:59;94086.41;;;1.16;55.28
67545;BME280;54380;47.770;11.150;2024-01-16T11:13:27;94086.94;;;1.25;55.35
67545;BME280;54380;47.770;11.150;2024-01-16T11:15:54;94092.06;;;1.31;55.19
67545;BME280;54380;47.770;11.150;2024-01-16T11:18:22;94086.47;;;1.35;55.09
67545;BME280;54380;47.770;11.150;2024-01-16T11:20:52;94088.22;;;1.41;55.11
67545;BME280;54380;47.770;11.150;2024-01-16T11:23:33;94077.72;;;1.47;55.14
67545;BME280;54380;47.770;11.150;2024-01-16T11:26:12;94073.66;;;1.58;55.11
67545;BME280;54380;47.770;11.150;2024-01-16T11:28:50;94073.25;;;1.80;55.20
67545;BME280;54380;47.770;11.150;2024-01-16T11:31:27;94066.47;;;1.97;55.90
67545;BME280;54380;47.770;11.150;2024-01-16T11:33:54;94053.88;;;2.12;55.18
67545;BME280;54380;47.770;11.150;2024-01-16T11:39:07;94060.00;;;2.36;55.02
67545;BME280;54380;47.770;11.150;2024-01-16T11:41:47;94055.72;;;2.42;54.86
67545;BME280;54380;47.770;11.150;2024-01-16T11:46:59;94046.50;;;2.58;54.54
67545;BME280;54380;47.770;11.150;2024-01-16T11:49:26;94053.81;;;2.68;54.42
67545;BME280;54380;47.770;11.150;2024-01-16T11:51:53;94048.38;;;2.69;54.25
67545;BME280;54380;47.770;11.150;2024-01-16T11:54:22;94052.03;;;2.80;54.38
67545;BME280;54380;47.770;11.150;2024-01-16T11:56:55;94049.69;;;2.90;53.91
67545;BME280;54380;47.770;11.150;2024-01-16T12:02:12;94041.09;;;3.13;53.62
67545;BME280;54380;47.770;11.150;2024-01-16T12:04:40;94041.81;;;3.20;53.00
67545;BME280;54380;47.770;11.150;2024-01-16T12:07:08;94034.44;;;3.17;52.53
67545;BME280;54380;47.770;11.150;2024-01-16T12:09:37;94029.00;;;3.19;52.21
67545;BME280;54380;47.770;11.150;2024-01-16T12:12:04;94027.97;;;3.20;52.70
67545;BME280;54380;47.770;11.150;2024-01-16T12:14:31;94019.94;;;3.21;52.30
67545;BME280;54380;47.770;11.150;2024-01-16T12:17:10;94024.81;;;3.29;52.39
67545;BME280;54380;47.770;11.150;2024-01-16T12:19:37;94028.09;;;3.37;52.37
67545;BME280;54380;47.770;11.150;2024-01-16T12:22:08;94021.53;;;3.46;52.29
67545;BME280;54380;47.770;11.150;2024-01-16T12:24:37;94014.28;;;3.48;51.26
67545;BME280;54380;47.770;11.150;2024-01-16T12:27:04;94008.94;;;3.43;51.35
67545;BME280;54380;47.770;11.150;2024-01-16T12:29:31;94012.34;;;3.43;51.77
67545;BME280;54380;47.770;11.150;2024-01-16T12:32:05;94008.38;;;3.52;51.76
67545;BME280;54380;47.770;11.150;2024-01-16T12:34:32;94000.63;;;3.81;52.47
67545;BME280;54380;47.770;11.150;2024-01-16T12:37:03;93996.16;;;4.05;51.87
67545;BME280;54380;47.770;11.150;2024-01-16T12:39:30;93989.38;;;4.33;52.50
67545;BME280;54380;47.770;11.150;2024-01-16T12:41:59;93984.44;;;4.48;51.24
67545;BME280;54380;47.770;11.150;2024-01-16T12:44:26;93981.53;;;4.61;51.57
67545;BME280;54380;47.770;11.150;2024-01-16T12:46:53;93973.63;;;4.73;51.02
67545;BME280;54380;47.770;11.150;2024-01-16T12:49:20;93968.25;;;4.97;50.26
67545;BME280;54380;47.770;11.150;2024-01-16T12:51:47;93957.94;;;5.41;51.02
67545;BME280;54380;47.770;11.150;2024-01-16T12:54:15;93948.75;;;5.77;50.02
67545;BME280;54380;47.770;11.150;2024-01-16T12:56:42;93945.56;;;6.14;49.91
67545;BME280;54380;47.770;11.150;2024-01-16T12:59:11;93943.41;;;6.33;49.37
67545;BME280;54380;47.770;11.150;2024-01-16T13:01:39;93938.69;;;6.35;48.14
67545;BME280;54380;47.770;11.150;2024-01-16T13:04:06;93937.03;;;6.29;47.05
67545;BME280;54380;47.770;11.150;2024-01-16T13:06:34;93930.47;;;6.26;47.67
67545;BME280;54380;47.770;11.150;2024-01-16T13:09:05;93931.72;;;6.46;46.06
67545;BME280;54380;47.770;11.150;2024-01-16T13:11:49;93928.50;;;6.66;45.86
67545;BME280;54380;47.770;11.150;2024-01-16T13:14:24;93929.19;;;6.83;45.29